Latest Weather Observations for Coober Pedy Airport

IDS60801

Issued at 7:31 pm CST Saturday 4 July 2015 (issued every 30 minutes, with the page automatically refreshed every 10 minutes)

About weather observations | Map of weather stations | Latest weather observations for SA | Other Formats
Station Details ID: 016090 Name: COOBER PEDY AIRPORT Lat: -29.03 Lon: 134.72 Height: 225.0 m
Data from the previous 72 hours. | See also: Recent months at Coober Pedy Airport
Date/Time
CST
Temp
°C
App
Temp
°C
Dew
Point
Rel
Hum
%
Delta-T
°C
Wind Press
QNH
hPa
Press
MSL
hPa
Rain
since 9 am
mm
Dir
 
Spd
km/h
Gust
km/h
Spd
kts
Gust
kts
04/07:30pm 11.7 8.1 2.7 54 3.9 ESE 11 11 6 6 1022.2 1022.2 0.0
04/07:00pm 11.8 8.1 2.3 52 4.1 ESE 11 13 6 7 1021.8 1021.9 0.0
04/06:30pm 13.2 9.9 2.4 48 4.8 SE 9 11 5 6 1021.8 1021.9 0.0
04/06:00pm 14.3 12.7 2.2 44 5.4 CALM 0 0 0 0 1021.9 1022.0 0.0
04/05:30pm 15.2 13.2 2.1 41 5.8 NNE 2 7 1 4 1021.8 1021.9 0.0
04/05:00pm 15.7 12.4 2.2 40 6.1 NE 9 13 5 7 1021.7 1021.8 0.0
04/04:30pm 16.3 13.6 2.7 40 6.2 NNW 6 11 3 6 1022.1 1022.1 0.0
04/04:00pm 15.8 13.1 2.6 41 6.0 E 6 11 3 6 1022.1 1022.1 0.0
04/03:30pm 16.8 14.9 3.1 40 6.3 NW 2 11 1 6 1022.3 1022.3 0.0
04/03:00pm 16.3 13.5 3.0 41 6.1 NW 7 15 4 8 1021.9 1022.0 0.0
04/02:30pm 16.2 13.0 3.3 42 6.0 N 9 15 5 8 1022.1 1022.1 0.0
04/02:00pm 15.4 12.2 3.2 44 5.6 ESE 9 13 5 7 1022.3 1022.3 0.0
04/01:30pm 15.6 12.1 3.4 44 5.6 NE 11 17 6 9 1022.7 1022.7 0.0
04/01:00pm 15.5 12.0 3.6 45 5.5 NNE 11 19 6 10 1023.3 1023.3 0.0
04/12:30pm 14.8 10.7 4.5 50 4.8 NNE 15 22 8 12 1023.7 1023.7 0.0
04/12:00pm 15.0 10.7 5.2 52 4.7 NE 17 22 9 12 1024.2 1024.3 0.0
04/11:30am 14.0 9.7 5.1 55 4.2 NE 17 24 9 13 1024.7 1024.8 0.0
04/11:00am 13.2 8.8 4.9 57 3.9 NE 17 22 9 12 1025.1 1025.2 0.0
04/10:30am 12.4 7.6 4.9 60 3.5 NNE 19 22 10 12 1025.0 1025.1 0.0
04/10:00am 11.8 7.0 4.8 62 3.2 NNE 19 24 10 13 1025.1 1025.2 0.0
04/09:30am 11.1 6.7 4.8 65 2.9 NNE 17 20 9 11 1025.1 1025.2 0.0
04/09:00am 10.1 6.4 4.5 68 2.5 NNE 13 17 7 9 1025.1 1025.2 0.0
04/08:30am 8.8 5.4 4.0 72 2.1 NNE 11 13 6 7 1025.0 1025.1 0.0
04/08:00am 6.7 2.7 3.0 77 1.6 NNE 13 15 7 8 1024.8 1024.9 0.0
04/07:30am 5.9 1.5 2.5 79 1.4 N 15 15 8 8 1024.6 1024.7 0.0
04/07:00am 5.9 1.9 2.7 80 1.3 NNE 13 15 7 8 1024.4 1024.5 0.0
04/06:30am 6.0 2.0 2.8 80 1.3 N 13 15 7 8 1024.2 1024.3 0.0
04/06:00am 5.8 1.7 2.4 79 1.4 N 13 15 7 8 1023.9 1023.9 0.0
04/05:30am 5.9 1.4 2.4 78 1.4 NNE 15 15 8 8 1023.7 1023.7 0.0
04/05:00am 6.3 2.2 2.2 75 1.7 NNE 13 15 7 8 1023.9 1023.9 0.0
04/04:30am 6.5 2.8 2.4 75 1.7 NNE 11 13 6 7 1024.0 1024.0 0.0
04/04:00am 6.5 2.0 2.2 74 1.8 NNE 15 17 8 9 1023.9 1023.9 0.0
04/03:30am 6.6 2.1 2.3 74 1.8 NNE 15 17 8 9 1024.1 1024.2 0.0
04/03:00am 6.2 2.5 2.1 75 1.7 NNE 11 13 6 7 1024.3 1024.4 0.0
04/02:30am 6.1 1.9 1.8 74 1.7 NNE 13 15 7 8 1024.4 1024.5 0.0
04/02:00am 6.5 2.0 2.0 73 1.9 NE 15 15 8 8 1024.3 1024.4 0.0
04/01:30am 7.0 2.5 1.9 70 2.1 NE 15 15 8 8 1024.4 1024.5 0.0
04/01:00am 8.0 3.6 2.5 68 2.3 NE 15 17 8 9 1024.3 1024.4 0.0
04/12:30am 8.6 3.8 2.4 65 2.6 NE 17 20 9 11 1024.3 1024.4 0.0
04/12:00am 9.0 3.6 2.3 63 2.8 NE 20 22 11 12 1024.4 1024.5 0.0
 
Date/Time
CST
Temp
°C
App
Temp
°C
Dew
Point
Rel
Hum
%
Delta-T
°C
Wind Press
QNH
hPa
Press
MSL
hPa
Rain
since 9 am
mm
Dir
 
Spd
km/h
Gust
km/h
Spd
kts
Gust
kts
03/11:30pm 8.9 4.4 2.3 63 2.8 NE 15 19 8 10 1024.8 1024.9 0.0
03/11:00pm 8.9 4.8 2.0 62 2.9 NE 13 15 7 8 1024.7 1024.8 0.0
03/10:30pm 8.6 4.4 1.7 62 2.9 E 13 17 7 9 1024.7 1024.8 0.0
03/10:00pm 9.2 4.7 1.9 60 3.1 ENE 15 15 8 8 1024.7 1024.8 0.0
03/09:30pm 9.4 5.2 1.8 59 3.2 ENE 13 15 7 8 1025.0 1025.1 0.0
03/09:00pm 9.9 5.4 2.0 58 3.3 ENE 15 15 8 8 1024.9 1025.0 0.0
03/08:30pm 10.1 5.6 2.0 57 3.4 ENE 15 17 8 9 1024.7 1024.8 0.0
03/08:00pm 10.1 5.6 2.0 57 3.5 ENE 15 15 8 8 1025.0 1025.1 0.0
03/07:30pm 11.0 6.9 2.1 54 3.8 NE 13 13 7 7 1025.0 1025.1 0.0
03/07:00pm 11.7 8.0 2.2 52 4.1 NE 11 13 6 7 1024.8 1024.9 0.0
03/06:30pm 12.4 8.7 2.3 50 4.4 NE 11 11 6 6 1024.7 1024.8 0.0
03/06:00pm 13.5 9.8 2.1 46 5.0 NE 11 13 6 7 1024.5 1024.6 0.0
03/05:30pm 15.2 11.1 2.4 42 5.7 NNE 13 15 7 8 1024.4 1024.5 0.0
03/05:00pm 16.0 11.5 2.4 40 6.2 NNE 15 20 8 11 1024.4 1024.5 0.0
03/04:30pm 16.3 11.1 2.3 39 6.3 NNE 19 26 10 14 1024.4 1024.5 0.0
03/04:00pm 16.7 11.5 2.7 39 6.4 NNE 19 28 10 15 1024.5 1024.6 0.0
03/03:30pm 16.6 11.2 2.2 38 6.5 NNE 20 28 11 15 1024.7 1024.8 0.0
03/03:00pm 17.1 11.8 3.1 39 6.5 NNE 20 28 11 15 1024.8 1024.9 0.0
03/02:30pm 16.5 10.7 2.2 38 6.5 NNE 22 33 12 18 1025.1 1025.2 0.0
03/02:00pm 16.7 10.1 2.3 38 6.6 NNE 26 33 14 18 1025.3 1025.4 0.0
03/01:30pm 16.3 9.4 2.7 40 6.2 NNE 28 37 15 20 1025.7 1025.8 0.0
03/01:00pm 16.0 9.5 2.4 40 6.2 NNE 26 32 14 17 1026.1 1026.2 0.0
03/12:30pm 16.4 9.6 3.1 41 6.1 NE 28 33 15 18 1026.9 1026.9 0.0
03/12:00pm 15.6 8.9 3.4 44 5.6 NNE 28 37 15 20 1027.6 1027.6 0.0
03/11:30am 15.1 8.3 3.3 45 5.4 NE 28 33 15 18 1028.0 1028.1 0.0
03/11:00am 13.9 8.9 3.4 49 4.8 NE 19 24 10 13 1028.4 1028.5 0.0
03/10:30am 12.9 8.0 4.1 55 4.0 NNE 19 24 10 13 1028.5 1028.6 0.0
03/10:00am 12.0 7.1 4.2 59 3.6 NE 19 20 10 11 1028.5 1028.6 0.0
03/09:30am 11.2 7.2 4.9 65 2.9 NE 15 19 8 10 1028.4 1028.5 0.0
03/09:00am 9.9 5.5 4.5 69 2.4 ENE 17 19 9 10 1028.1 1028.2 0.0
03/08:30am 9.0 5.6 4.2 72 2.1 ENE 11 13 6 7 1028.2 1028.3 0.0
03/08:00am 6.8 3.3 3.4 79 1.5 ENE 11 11 6 6 1028.0 1028.1 0.0
03/07:30am 5.3 1.2 2.5 82 1.1 E 13 15 7 8 1027.7 1027.7 0.0
03/07:00am 5.8 2.2 2.8 81 1.3 E 11 11 6 6 1027.5 1027.5 0.0
03/06:30am 6.2 3.0 3.0 80 1.3 E 9 11 5 6 1027.3 1027.3 0.0
03/06:00am 6.8 3.2 3.2 78 1.5 E 11 11 6 6 1027.3 1027.3 0.0
03/05:30am 6.6 3.0 2.9 77 1.5 E 11 11 6 6 1027.1 1027.1 0.0
03/05:00am 6.9 3.3 3.0 76 1.7 E 11 13 6 7 1027.1 1027.1 0.0
03/04:30am 6.9 3.3 2.8 75 1.7 E 11 13 6 7 1027.1 1027.1 0.0
03/04:00am 6.8 3.9 2.7 75 1.7 E 7 9 4 5 1027.4 1027.4 0.0
03/03:30am 6.9 3.2 2.4 73 1.9 E 11 11 6 6 1027.6 1027.6 0.0
03/03:00am 7.6 3.6 2.7 71 2.1 E 13 15 7 8 1027.8 1027.9 0.0
03/02:30am 7.9 4.3 2.8 70 2.2 ESE 11 13 6 7 1027.8 1027.9 0.0
03/02:00am 8.2 4.2 2.7 68 2.3 E 13 15 7 8 1028.0 1028.1 0.0
03/01:30am 8.3 4.2 2.5 67 2.4 E 13 15 7 8 1028.1 1028.2 0.0
03/01:00am 8.1 4.0 2.4 67 2.4 E 13 17 7 9 1028.2 1028.3 0.0
03/12:30am 8.5 4.4 2.5 66 2.5 ESE 13 15 7 8 1028.3 1028.4 0.0
03/12:00am 8.8 4.4 2.6 65 2.6 E 15 17 8 9 1028.5 1028.6 0.0
 
Date/Time
CST
Temp
°C
App
Temp
°C
Dew
Point
Rel
Hum
%
Delta-T
°C
Wind Press
QNH
hPa
Press
MSL
hPa
Rain
since 9 am
mm
Dir
 
Spd
km/h
Gust
km/h
Spd
kts
Gust
kts
02/11:30pm 8.9 4.8 2.5 64 2.7 ESE 13 15 7 8 1028.8 1028.9 0.0
02/11:00pm 9.6 5.2 2.5 61 3.1 ESE 15 17 8 9 1029.0 1029.1 0.0
02/10:30pm 9.8 5.7 2.2 59 3.2 ESE 13 15 7 8 1028.9 1029.0 0.0
02/10:00pm 9.8 6.0 1.9 58 3.4 ESE 11 13 6 7 1029.1 1029.2 0.0
02/09:30pm 9.6 5.4 1.5 57 3.4 SE 13 15 7 8 1028.9 1029.0 0.0
02/09:00pm 10.6 6.7 1.4 53 3.9 ESE 11 11 6 6 1028.9 1029.0 0.0
02/08:30pm 11.0 7.1 1.3 51 4.1 E 11 11 6 6 1028.9 1029.0 0.0
02/08:00pm 12.1 8.2 1.4 48 4.6 E 11 13 6 7 1028.8 1028.9 0.0
02/07:30pm 12.3 8.0 1.3 47 4.7 ENE 13 13 7 7 1028.7 1028.8 0.0
02/07:00pm 12.0 8.1 1.1 47 4.6 ENE 11 13 6 7 1028.5 1028.6 0.0
02/06:30pm 12.7 8.4 0.8 44 5.0 ENE 13 13 7 7 1028.2 1028.3 0.0
02/06:00pm 14.0 9.6 0.3 39 5.8 ENE 13 13 7 7 1028.1 1028.2 0.0
02/05:30pm 15.8 11.0 0.4 35 6.6 E 15 19 8 10 1028.0 1028.1 0.0
02/05:00pm 16.8 12.0 0.0 32 7.3 E 15 20 8 11 1027.9 1028.0 0.0
02/04:30pm 17.2 12.6 -1.0 29 7.7 ESE 13 19 7 10 1027.9 1028.0 0.0
02/04:00pm 17.4 12.5 -0.8 29 7.8 ESE 15 20 8 11 1027.8 1027.9 0.0
02/03:30pm 17.6 12.8 0.3 31 7.6 ESE 15 24 8 13 1028.0 1028.1 0.0
02/03:00pm 17.5 13.5 0.6 32 7.4 ESE 11 20 6 11 1028.0 1028.1 0.0
02/02:30pm 17.6 12.6 1.6 34 7.2 ESE 17 26 9 14 1028.1 1028.2 0.0
02/02:00pm 17.5 12.5 1.5 34 7.2 ESE 17 28 9 15 1028.3 1028.4 0.0
02/01:30pm 17.2 12.5 1.2 34 7.1 SE 15 28 8 15 1028.8 1028.9 0.0
02/01:00pm 16.8 12.7 2.4 38 6.6 E 13 19 7 10 1029.2 1029.3 0.0
02/12:30pm 16.8 12.8 2.8 39 6.4 E 13 19 7 10 1029.7 1029.8 0.0
02/12:00pm 16.2 12.5 2.6 40 6.2 ENE 11 17 6 9 1030.2 1030.3 0.0
02/11:30am 16.0 11.9 2.4 40 6.1 ENE 13 17 7 9 1030.7 1030.8 0.0
02/11:00am 15.3 11.0 3.1 44 5.6 E 15 20 8 11 1030.7 1030.8 0.0
02/10:30am 14.4 10.1 3.2 47 5.1 E 15 19 8 10 1030.6 1030.7 0.0
02/10:00am 13.4 8.8 3.5 51 4.5 E 17 19 9 10 1030.6 1030.7 0.0
02/09:30am 11.8 7.6 3.8 58 3.6 E 15 17 8 9 1030.3 1030.4 0.0
02/09:00am 10.2 6.2 2.8 60 3.2 ESE 13 15 7 8 1030.3 1030.4 0.0
02/08:30am 9.3 5.3 3.1 65 2.7 ESE 13 15 7 8 1030.0 1030.1 0.0
02/08:00am 7.2 3.1 2.1 70 2.1 SE 13 15 7 8 1029.9 1030.0 0.0
02/07:30am 7.1 2.6 2.0 70 2.1 SE 15 19 8 10 1029.4 1029.5 0.0
02/07:00am 8.0 4.3 2.5 68 2.3 S 11 11 6 6 1029.1 1029.2 0.0
02/06:30am 6.9 3.6 2.4 73 1.9 S 9 11 5 6 1028.9 1029.0 0.0
02/06:00am 6.6 3.6 2.3 74 1.8 SSW 7 9 4 5 1028.6 1028.7 0.0
02/05:30am 6.7 3.3 2.0 72 1.9 SSW 9 9 5 5 1028.4 1028.5 0.0
02/05:00am 6.7 3.4 2.2 73 1.9 SW 9 11 5 6 1028.3 1028.4 0.0
02/04:30am 6.5 2.7 1.8 72 1.9 SW 11 13 6 7 1028.2 1028.3 0.0
02/04:00am 7.2 3.8 2.1 70 2.1 W 9 19 5 10 1028.1 1028.2 0.0
02/03:30am 7.9 5.0 2.4 68 2.3 N 7 7 4 4 1028.0 1028.1 0.0
02/03:00am 7.8 3.7 2.3 68 2.3 N 13 13 7 7 1027.9 1028.0 0.0
02/02:30am 9.1 5.0 2.4 63 2.8 NNE 13 13 7 7 1028.1 1028.2 0.0
02/02:00am 9.6 6.0 2.7 62 3.0 NNE 11 13 6 7 1028.3 1028.4 0.0
02/01:30am 9.3 5.3 2.6 63 2.9 NE 13 13 7 7 1028.3 1028.4 0.0
02/01:00am 9.1 5.4 2.2 62 2.9 NE 11 13 6 7 1028.5 1028.6 0.0
02/12:30am 9.5 5.4 2.4 61 3.0 NE 13 13 7 7 1028.7 1028.8 0.0
02/12:00am 9.9 5.8 2.5 60 3.2 NNE 13 15 7 8 1028.9 1029.0 0.0
 
Date/Time
CST
Temp
°C
App
Temp
°C
Dew
Point
Rel
Hum
%
Delta-T
°C
Wind Press
QNH
hPa
Press
MSL
hPa
Rain
since 9 am
mm
Dir
 
Spd
km/h
Gust
km/h
Spd
kts
Gust
kts
01/11:30pm 9.6 5.5 2.0 59 3.2 ENE 13 13 7 7 1029.1 1029.2 0.0
01/11:00pm 11.5 7.9 2.8 55 3.8 ESE 11 13 6 7 1029.2 1029.3 0.0
01/10:30pm 11.4 7.8 2.7 55 3.8 SE 11 11 6 6 1029.1 1029.2 0.0
01/10:00pm 11.4 7.8 2.7 55 3.8 SE 11 13 6 7 1029.0 1029.1 0.0
01/09:30pm 11.8 7.7 2.5 53 4.0 SE 13 13 7 7 1028.9 1029.0 0.0
01/09:00pm 12.1 8.4 2.6 52 4.2 SE 11 11 6 6 1028.7 1028.8 0.0
01/08:30pm 12.1 8.4 2.6 52 4.2 ESE 11 11 6 6 1028.6 1028.7 0.0
01/08:00pm 13.4 9.7 2.6 48 4.8 SE 11 13 6 7 1028.5 1028.6 0.0

Other Formats:

Comma delimited format used in spreadsheet applications
http://www.bom.gov.au/fwo/IDS60801/IDS60801.95458.axf

JavaScript Object Notation format (JSON) in row-major order
http://www.bom.gov.au/fwo/IDS60801/IDS60801.95458.json